Time;durP1;ratioP1;P1;durP2;ratioP2;P2;SDS_P1;SDS_P2;PMS_P1;PMS_P2;Temp;Humidity;BMP_temperature;BMP_pressure;BME280_temperature;BME280_humidity;BME280_pressure;Samples;Min_cycle;Max_cycle;Signal;HPM_P1;HPM_P2
2023/09/20 00:00:11;;;;;;;0.80;0.60;;;;;;;22.84;45.97;100043.59;4515944;28;20030;-63
2023/09/20 00:02:22;;;;;;;1.20;0.65;;;;;;;22.84;45.81;100037.00;4515943;28;20061;-63
2023/09/20 00:04:35;;;;;;;1.52;0.65;;;;;;;22.79;46.06;100031.63;4512926;28;20121;-64
2023/09/20 00:06:46;;;;;;;0.82;0.60;;;;;;;22.85;46.34;100047.31;4512380;28;20088;-63
2023/09/20 00:08:58;;;;;;;1.20;0.60;;;;;;;22.84;46.15;100037.00;4498896;28;20873;-63
2023/09/20 00:11:15;;;;;;;0.60;0.40;;;;;;;22.77;46.36;100022.56;4515295;28;20022;-63
2023/09/20 00:13:25;;;;;;;1.13;0.50;;;;;;;22.82;45.93;100027.94;4514592;28;20026;-64
2023/09/20 00:15:36;;;;;;;1.52;0.70;;;;;;;22.81;45.90;100026.31;4514885;28;20033;-64
2023/09/20 00:17:46;;;;;;;0.82;0.50;;;;;;;22.84;45.99;100022.63;4514239;28;20037;-63
2023/09/20 00:19:56;;;;;;;1.10;0.60;;;;;;;22.85;46.41;100027.19;4507286;28;20514;-64
2023/09/20 00:22:10;;;;;;;0.88;0.60;;;;;;;22.83;46.71;100024.69;4516412;28;20034;-64
2023/09/20 00:24:21;;;;;;;1.33;0.60;;;;;;;22.84;46.44;100025.50;4514722;28;20089;-64
2023/09/20 00:26:33;;;;;;;0.85;0.50;;;;;;;22.81;46.48;100011.91;4515566;28;20038;-63
2023/09/20 00:28:48;;;;;;;0.60;0.60;;;;;;;22.81;46.42;100011.91;4513507;28;20057;-63
2023/09/20 00:31:00;;;;;;;0.88;0.52;;;;;;;22.81;46.13;100015.63;4514826;28;20034;-64
2023/09/20 00:33:11;;;;;;;0.68;0.50;;;;;;;22.81;46.40;100014.78;4513901;28;20037;-64
2023/09/20 00:35:22;;;;;;;1.45;0.55;;;;;;;22.81;46.31;100014.78;4514048;28;20069;-64
2023/09/20 00:37:32;;;;;;;1.30;0.50;;;;;;;22.81;46.65;100015.63;4515399;28;20936;-63
2023/09/20 00:39:42;;;;;;;0.95;0.65;;;;;;;22.82;46.78;100016.44;4500860;28;20142;-64
2023/09/20 00:41:53;;;;;;;1.25;0.50;;;;;;;22.82;46.65;100019.31;4514893;28;20095;-63
2023/09/20 00:44:04;;;;;;;0.52;0.40;;;;;;;22.82;46.10;100010.69;4513569;28;20502;-63
2023/09/20 00:46:15;;;;;;;1.13;0.52;;;;;;;22.80;46.38;100013.94;4515274;28;20021;-63
2023/09/20 00:48:27;;;;;;;1.48;0.60;;;;;;;22.80;46.81;100016.84;4505170;28;20053;-63
2023/09/20 00:50:42;;;;;;;0.93;0.50;;;;;;;22.81;46.76;100014.78;4514569;28;20026;-64
2023/09/20 00:52:54;;;;;;;0.93;0.65;;;;;;;22.78;46.80;100015.59;4498138;28;20932;-63
2023/09/20 00:55:07;;;;;;;1.42;0.70;;;;;;;22.77;46.74;100009.00;4498817;28;20026;-63
2023/09/20 00:57:19;;;;;;;0.77;0.50;;;;;;;22.77;46.91;100013.94;4497469;28;20045;-63
2023/09/20 00:59:32;;;;;;;0.90;0.50;;;;;;;22.80;46.46;100013.94;4516121;28;20034;-63
2023/09/20 01:01:42;;;;;;;1.73;0.65;;;;;;;22.82;46.25;100016.44;4498732;28;20618;-64
2023/09/20 01:03:54;;;;;;;0.98;0.57;;;;;;;22.81;46.46;100015.63;4495610;28;20049;-66
2023/09/20 01:06:09;;;;;;;1.20;0.60;;;;;;;22.80;46.40;100013.16;4514091;28;20034;-63
2023/09/20 01:08:20;;;;;;;0.70;0.68;;;;;;;22.72;46.63;99994.97;4498518;28;20065;-64
2023/09/20 01:10:31;;;;;;;0.88;0.50;;;;;;;22.81;46.64;100009.03;4512734;28;20041;-63
2023/09/20 01:12:43;;;;;;;1.00;0.50;;;;;;;22.80;47.04;100008.19;4495433;28;20034;-63
2023/09/20 01:14:54;;;;;;;0.98;0.65;;;;;;;22.76;47.15;99998.72;4496862;28;20036;-64
2023/09/20 01:17:07;;;;;;;0.88;0.50;;;;;;;22.80;46.61;100007.41;4513647;28;20029;-63
2023/09/20 01:19:18;;;;;;;1.13;0.60;;;;;;;22.78;46.85;100010.66;4505689;28;20058;-64
2023/09/20 01:21:29;;;;;;;1.27;0.68;;;;;;;22.75;46.75;100010.63;4499661;28;20037;-64
2023/09/20 01:23:43;;;;;;;1.60;0.70;;;;;;;22.74;47.08;100006.91;4497850;28;20022;-63
2023/09/20 01:25:56;;;;;;;1.50;0.70;;;;;;;22.80;46.93;100024.66;4497173;28;20641;-63
2023/09/20 01:28:09;;;;;;;0.82;0.63;;;;;;;22.73;46.92;100002.41;4512403;28;20613;-64
2023/09/20 01:30:20;;;;;;;1.17;0.63;;;;;;;22.80;46.71;100016.84;4513382;28;20049;-64
2023/09/20 01:32:30;;;;;;;1.05;0.63;;;;;;;22.75;47.23;100010.63;4497835;28;20034;-63
2023/09/20 01:34:41;;;;;;;0.80;0.60;;;;;;;22.75;46.95;100005.72;4513591;28;20040;-64
2023/09/20 01:36:51;;;;;;;1.20;0.70;;;;;;;22.78;47.15;100006.97;4513435;28;20044;-63
2023/09/20 01:39:08;;;;;;;0.85;0.60;;;;;;;22.79;47.13;100020.09;4505539;28;20037;-63
2023/09/20 01:41:21;;;;;;;0.77;0.70;;;;;;;22.77;47.13;100014.75;4499358;28;20072;-64
2023/09/20 01:43:33;;;;;;;1.95;0.57;;;;;;;22.76;47.30;100007.34;4513243;28;20049;-64
2023/09/20 01:45:44;;;;;;;1.08;0.50;;;;;;;22.79;47.11;100012.31;4513929;28;20976;-63
2023/09/20 01:48:00;;;;;;;0.75;0.60;;;;;;;22.75;47.50;100002.00;4513610;28;20117;-64
2023/09/20 01:50:21;;;;;;;1.00;0.50;;;;;;;22.79;47.26;100011.47;4512558;28;20850;-63
2023/09/20 01:52:32;;;;;;;0.90;0.50;;;;;;;22.75;47.51;100002.00;4506363;28;20786;-63
2023/09/20 01:54:42;;;;;;;1.00;0.63;;;;;;;22.74;47.77;100000.34;4512492;28;20037;-63
2023/09/20 01:56:52;;;;;;;1.15;0.70;;;;;;;22.74;47.76;99997.47;4501507;28;20037;-64
2023/09/20 01:59:05;;;;;;;0.98;0.52;;;;;;;22.75;47.59;99994.19;4513147;28;20045;-64
2023/09/20 02:01:17;;;;;;;0.80;0.60;;;;;;;22.76;47.39;99995.84;4497797;28;20100;-63
2023/09/20 02:03:30;;;;;;;0.68;0.40;;;;;;;22.70;47.38;99994.56;4497817;28;20101;-63
2023/09/20 02:05:43;;;;;;;0.90;0.60;;;;;;;22.78;47.18;99998.31;4512329;28;20048;-63
2023/09/20 02:07:57;;;;;;;1.10;0.50;;;;;;;22.77;47.37;99999.56;4500145;28;20046;-64
2023/09/20 02:10:08;;;;;;;0.85;0.60;;;;;;;22.74;47.47;100006.09;4512143;28;21276;-64
2023/09/20 02:12:18;;;;;;;1.30;0.80;;;;;;;22.75;47.56;100007.75;4514254;28;20052;-63
2023/09/20 02:14:29;;;;;;;0.70;0.50;;;;;;;22.77;48.07;100008.19;4512773;28;20075;-64
2023/09/20 02:16:39;;;;;;;1.23;0.43;;;;;;;22.74;47.64;100004.03;4496210;28;20044;-63
2023/09/20 02:18:51;;;;;;;1.88;0.80;;;;;;;22.76;47.50;100004.47;4513917;28;20068;-63
2023/09/20 02:21:01;;;;;;;0.98;0.50;;;;;;;22.74;48.07;100001.16;4498886;28;20098;-63
2023/09/20 02:23:13;;;;;;;1.33;0.60;;;;;;;22.77;47.82;100013.94;4512965;28;20044;-63
2023/09/20 02:25:26;;;;;;;1.00;0.70;;;;;;;22.74;48.05;100017.63;4496874;28;20085;-64
2023/09/20 02:27:43;;;;;;;0.80;0.60;;;;;;;22.71;47.54;99999.09;4495373;28;20134;-64
2023/09/20 02:29:54;;;;;;;0.70;0.50;;;;;;;22.72;48.16;100009.34;4516479;28;20033;-64
2023/09/20 02:32:04;;;;;;;1.02;0.65;;;;;;;22.76;47.73;100009.41;4516285;28;20025;-64
2023/09/20 02:34:15;;;;;;;1.20;0.60;;;;;;;22.70;48.14;100002.34;4514553;28;20034;-64
2023/09/20 02:36:27;;;;;;;1.45;0.70;;;;;;;22.76;47.87;100003.63;4515819;28;20494;-63
2023/09/20 02:38:38;;;;;;;0.93;0.52;;;;;;;22.75;47.91;100004.88;4501658;28;20029;-63
2023/09/20 02:40:50;;;;;;;0.82;0.70;;;;;;;22.73;48.05;99999.53;4507445;28;20034;-63
2023/09/20 02:43:03;;;;;;;1.13;0.68;;;;;;;22.73;47.91;100001.56;4508999;28;20075;-63
2023/09/20 02:45:22;;;;;;;1.33;0.70;;;;;;;22.73;48.38;99995.81;4515465;28;20037;-63
2023/09/20 02:47:32;;;;;;;0.73;0.60;;;;;;;22.71;47.79;99987.56;4507120;28;20782;-64
2023/09/20 02:49:43;;;;;;;1.20;0.70;;;;;;;22.72;48.03;99994.97;4507194;28;20038;-63
2023/09/20 02:51:53;;;;;;;0.93;0.70;;;;;;;22.63;47.97;99976.41;4505150;28;20030;-63
2023/09/20 02:54:05;;;;;;;1.13;0.60;;;;;;;22.74;48.11;99991.72;4501216;28;20161;-63
2023/09/20 02:56:17;;;;;;;1.52;0.65;;;;;;;22.75;48.02;99993.38;4515708;28;20064;-64
2023/09/20 02:58:28;;;;;;;1.90;0.60;;;;;;;22.71;48.48;99981.81;4516183;28;20036;-63
2023/09/20 03:00:46;;;;;;;0.80;0.60;;;;;;;22.71;48.40;99981.81;4501631;28;20837;-63
2023/09/20 03:03:02;;;;;;;0.90;0.52;;;;;;;22.74;48.25;99985.97;4508370;28;20207;-63
2023/09/20 03:05:18;;;;;;;0.60;0.50;;;;;;;22.74;48.22;99989.66;4514893;28;20038;-63
2023/09/20 03:07:28;;;;;;;1.10;0.60;;;;;;;22.71;48.52;99978.09;4506879;28;20952;-64
2023/09/20 03:09:41;;;;;;;1.90;0.63;;;;;;;22.73;48.32;99978.53;4514971;28;20080;-64
2023/09/20 03:11:54;;;;;;;1.08;0.68;;;;;;;22.72;48.60;99976.91;4507810;28;20037;-63
2023/09/20 03:14:05;;;;;;;1.08;0.60;;;;;;;22.72;48.63;99979.78;4509067;28;20026;-63
2023/09/20 03:16:19;;;;;;;1.85;0.60;;;;;;;22.73;48.16;99979.38;4501603;28;20031;-63
2023/09/20 03:18:33;;;;;;;0.60;0.50;;;;;;;22.72;48.25;99974.81;4501280;28;21243;-63
2023/09/20 03:20:48;;;;;;;1.42;0.60;;;;;;;22.74;48.36;99974.47;4506916;28;20029;-63
2023/09/20 03:23:00;;;;;;;1.23;0.60;;;;;;;22.71;48.48;99963.72;4514561;28;20044;-63
2023/09/20 03:25:14;;;;;;;1.13;0.57;;;;;;;22.72;48.31;99966.19;4506653;28;20073;-65
2023/09/20 03:27:26;;;;;;;0.85;0.60;;;;;;;22.70;48.28;99956.31;4505369;28;20050;-63
2023/09/20 03:29:36;;;;;;;1.58;0.70;;;;;;;22.71;48.68;99955.94;4499687;28;20030;-63
2023/09/20 03:31:48;;;;;;;0.77;0.60;;;;;;;22.73;48.49;99955.53;4501193;28;20053;-63
2023/09/20 03:33:59;;;;;;;0.90;0.60;;;;;;;22.73;48.73;99955.53;4504534;28;20052;-63
2023/09/20 03:36:15;;;;;;;1.10;0.80;;;;;;;22.72;48.98;99943.19;4514114;28;20064;-64
2023/09/20 03:38:29;;;;;;;0.90;0.57;;;;;;;22.71;48.87;99944.41;4514148;28;20038;-67
2023/09/20 03:40:41;;;;;;;2.15;0.73;;;;;;;22.73;48.46;99952.66;4499898;28;20675;-63
2023/09/20 03:42:54;;;;;;;1.00;0.65;;;;;;;22.73;48.54;99950.59;4508564;28;20057;-63
2023/09/20 03:45:09;;;;;;;1.15;0.57;;;;;;;22.71;48.71;99946.47;4500091;28;20042;-63
2023/09/20 03:47:20;;;;;;;0.73;0.65;;;;;;;22.71;48.51;99952.22;4513837;28;20853;-64
2023/09/20 03:49:31;;;;;;;1.27;0.60;;;;;;;22.68;48.90;99953.00;4484941;28;20065;-64
2023/09/20 03:51:41;;;;;;;0.95;0.70;;;;;;;22.68;48.51;99947.25;4501523;28;20121;-63
2023/09/20 03:53:52;;;;;;;1.05;0.60;;;;;;;22.66;48.92;99938.22;4506700;28;20846;-64
2023/09/20 03:56:09;;;;;;;0.82;0.65;;;;;;;22.70;48.53;99941.94;4501460;28;20128;-64
2023/09/20 03:58:20;;;;;;;1.42;0.65;;;;;;;22.71;48.85;99943.59;4500368;28;20037;-64
2023/09/20 04:00:31;;;;;;;1.42;0.63;;;;;;;22.70;48.85;99944.81;4484944;28;20034;-64
2023/09/20 04:02:45;;;;;;;0.60;0.50;;;;;;;22.68;48.75;99935.75;4499267;28;20038;-64
2023/09/20 04:05:00;;;;;;;1.25;0.70;;;;;;;22.69;48.69;99948.94;4499458;28;20022;-64
2023/09/20 04:07:10;;;;;;;1.15;0.70;;;;;;;22.70;48.74;99936.19;4514027;28;20053;-64
2023/09/20 04:09:21;;;;;;;1.33;0.60;;;;;;;22.69;49.04;99943.97;4500417;28;20080;-64
2023/09/20 04:11:32;;;;;;;0.73;0.52;;;;;;;22.69;49.00;99937.41;4500266;28;20077;-64
2023/09/20 04:13:42;;;;;;;0.85;0.50;;;;;;;22.69;49.31;99935.34;4496829;28;20040;-64
2023/09/20 04:15:53;;;;;;;0.95;0.50;;;;;;;22.65;49.24;99927.91;4505570;28;20553;-64
2023/09/20 04:18:03;;;;;;;1.02;0.65;;;;;;;22.68;49.01;99930.84;4496167;28;20383;-64
2023/09/20 04:20:14;;;;;;;0.63;0.50;;;;;;;22.69;49.08;99926.72;4499002;28;20049;-64
2023/09/20 04:22:25;;;;;;;0.98;0.60;;;;;;;22.69;49.57;99932.47;4512423;28;20091;-64
2023/09/20 04:24:36;;;;;;;0.93;0.57;;;;;;;22.66;49.47;99926.72;4499023;28;20051;-64
2023/09/20 04:26:47;;;;;;;0.65;0.50;;;;;;;22.67;48.99;99928.34;4496755;28;20029;-64
2023/09/20 04:28:58;;;;;;;0.75;0.50;;;;;;;22.66;49.47;99923.84;4506661;28;20393;-64
2023/09/20 04:31:09;;;;;;;0.77;0.50;;;;;;;22.66;49.38;99923.84;4499937;28;20031;-64
2023/09/20 04:33:20;;;;;;;0.80;0.50;;;;;;;22.68;49.03;99924.25;4505547;28;20578;-65
2023/09/20 04:35:33;;;;;;;1.23;0.50;;;;;;;22.58;49.16;99907.72;4500019;28;20034;-64
2023/09/20 04:37:45;;;;;;;1.83;0.60;;;;;;;22.69;48.85;99928.78;4499619;28;20045;-64
2023/09/20 04:39:56;;;;;;;1.13;0.68;;;;;;;22.67;49.13;99928.34;4489212;28;20659;-64
2023/09/20 04:42:09;;;;;;;1.00;0.70;;;;;;;22.67;48.99;99928.34;4497226;28;20040;-64
2023/09/20 04:44:20;;;;;;;1.10;0.57;;;;;;;22.66;49.09;99915.19;4501250;28;20038;-65
2023/09/20 04:46:34;;;;;;;0.90;0.60;;;;;;;22.62;48.99;99912.28;4507104;28;20874;-64
2023/09/20 04:48:44;;;;;;;0.93;0.60;;;;;;;22.67;49.03;99922.59;4499871;28;20123;-64
2023/09/20 04:50:55;;;;;;;0.80;0.60;;;;;;;22.67;49.55;99916.84;4513316;28;20129;-64
2023/09/20 04:53:06;;;;;;;1.13;0.70;;;;;;;22.66;49.21;99920.97;4505887;28;20121;-64
2023/09/20 04:55:16;;;;;;;0.50;0.40;;;;;;;22.67;49.20;99922.59;4507239;28;20037;-65
2023/09/20 04:57:27;;;;;;;1.38;0.63;;;;;;;22.65;49.02;99925.03;4514768;28;20041;-64
2023/09/20 04:59:39;;;;;;;0.60;0.52;;;;;;;22.67;49.04;99922.59;4500339;28;20238;-64
2023/09/20 05:01:50;;;;;;;1.50;0.60;;;;;;;22.66;49.16;99926.72;4513455;28;20130;-64
2023/09/20 05:04:00;;;;;;;0.73;0.50;;;;;;;22.68;49.00;99924.25;4505167;28;20084;-64
2023/09/20 05:06:12;;;;;;;0.73;0.47;;;;;;;22.65;49.05;99916.41;4497856;28;20088;-64
2023/09/20 05:08:23;;;;;;;1.13;0.80;;;;;;;22.65;48.92;99925.88;4498804;28;20884;-64
2023/09/20 05:10:35;;;;;;;1.27;0.65;;;;;;;22.60;49.29;99920.47;4500009;28;20035;-64
2023/09/20 05:12:47;;;;;;;0.80;0.43;;;;;;;22.63;49.14;99927.50;4506013;28;21431;-64
2023/09/20 05:14:58;;;;;;;0.80;0.60;;;;;;;22.66;49.02;99932.47;4504398;28;20034;-64
2023/09/20 05:17:08;;;;;;;0.50;0.50;;;;;;;22.65;48.74;99933.66;4496942;28;20044;-65
2023/09/20 05:19:19;;;;;;;1.13;0.50;;;;;;;22.66;49.29;99935.34;4504730;28;20125;-64
2023/09/20 05:21:29;;;;;;;1.08;0.52;;;;;;;22.60;48.72;99926.22;4499457;28;20139;-64
2023/09/20 05:23:40;;;;;;;0.80;0.50;;;;;;;22.51;48.95;99914.22;4514767;28;20041;-64
2023/09/20 05:25:51;;;;;;;0.60;0.60;;;;;;;22.66;49.19;99941.09;4497583;28;20082;-64
2023/09/20 05:28:02;;;;;;;1.40;0.75;;;;;;;22.65;49.08;99942.31;4501066;28;20037;-64
2023/09/20 05:30:13;;;;;;;0.77;0.60;;;;;;;22.64;49.30;99934.91;4494889;28;20046;-64
2023/09/20 05:32:23;;;;;;;0.70;0.60;;;;;;;22.62;48.88;99931.59;4495902;28;20038;-64
2023/09/20 05:34:34;;;;;;;0.98;0.55;;;;;;;22.61;49.38;99930.75;4512688;28;20501;-64
2023/09/20 05:36:47;;;;;;;1.67;0.60;;;;;;;22.63;49.37;99934.06;4514700;28;20022;-64
2023/09/20 05:38:57;;;;;;;1.50;0.60;;;;;;;22.65;49.50;99943.13;4493315;28;20129;-64
2023/09/20 05:41:10;;;;;;;1.55;0.60;;;;;;;22.64;49.25;99935.75;4500146;28;20022;-64
2023/09/20 05:43:21;;;;;;;0.82;0.60;;;;;;;22.62;49.54;99929.56;4513964;28;20042;-64
2023/09/20 05:45:31;;;;;;;1.02;0.60;;;;;;;22.61;49.53;99935.69;4512518;28;20648;-64
2023/09/20 05:47:43;;;;;;;0.63;0.60;;;;;;;22.59;49.71;99926.63;4512697;28;20479;-64
2023/09/20 05:49:53;;;;;;;0.82;0.50;;;;;;;22.61;49.36;99919.25;4511337;28;20055;-64
2023/09/20 05:52:06;;;;;;;0.90;0.60;;;;;;;22.62;49.68;99920.09;4506388;28;20038;-64
2023/09/20 05:54:19;;;;;;;1.15;0.68;;;;;;;22.60;49.82;99923.34;4512269;28;20828;-66
2023/09/20 05:56:30;;;;;;;1.38;0.70;;;;;;;22.63;49.81;99921.75;4498269;28;20026;-65
2023/09/20 05:58:41;;;;;;;0.93;0.50;;;;;;;22.60;49.73;99916.78;4512970;28;20077;-64
2023/09/20 06:00:52;;;;;;;0.90;0.50;;;;;;;22.59;49.67;99910.22;4513850;28;20034;-64
2023/09/20 06:03:04;;;;;;;0.50;0.50;;;;;;;22.64;50.07;99923.41;4512458;28;20074;-64
2023/09/20 06:05:14;;;;;;;0.90;0.65;;;;;;;22.64;50.23;99926.28;4512402;28;20853;-64
2023/09/20 06:07:25;;;;;;;0.50;0.50;;;;;;;22.63;50.31;99928.31;4513165;28;20042;-64
2023/09/20 06:09:35;;;;;;;1.15;0.68;;;;;;;22.59;51.12;99915.13;4512972;28;20490;-64
2023/09/20 06:11:46;;;;;;;0.60;0.60;;;;;;;22.64;51.39;99923.41;4507552;28;20026;-64
2023/09/20 06:13:57;;;;;;;1.40;0.75;;;;;;;22.63;51.33;99922.56;4481666;28;20673;-64
2023/09/20 06:16:08;;;;;;;0.70;0.50;;;;;;;22.58;51.54;99914.28;4512483;28;20029;-64
2023/09/20 06:18:19;;;;;;;0.75;0.50;;;;;;;22.62;51.21;99925.84;4513357;28;20041;-64
2023/09/20 06:20:29;;;;;;;0.70;0.50;;;;;;;22.60;51.38;99929.13;4497556;28;20018;-64
2023/09/20 06:22:39;;;;;;;0.88;0.50;;;;;;;22.62;51.12;99931.59;4506009;28;20053;-64
2023/09/20 06:24:50;;;;;;;0.93;0.55;;;;;;;22.64;51.38;99932.03;4497827;28;20018;-64
2023/09/20 06:27:00;;;;;;;1.40;0.55;;;;;;;22.63;51.63;99934.06;4513810;28;20479;-64
2023/09/20 06:29:11;;;;;;;0.88;0.60;;;;;;;22.62;51.82;99925.84;4513961;28;20069;-64
2023/09/20 06:31:22;;;;;;;0.90;0.60;;;;;;;22.59;51.70;99920.88;4512523;28;20668;-64
2023/09/20 06:33:33;;;;;;;0.77;0.60;;;;;;;22.62;51.49;99920.09;4499345;28;20502;-64
2023/09/20 06:35:44;;;;;;;0.40;0.40;;;;;;;22.62;51.72;99920.09;4505217;28;20514;-64
2023/09/20 06:37:55;;;;;;;1.42;0.50;;;;;;;22.59;51.64;99920.88;4510977;28;20515;-64
2023/09/20 06:40:22;;;;;;;0.70;0.50;;;;;;;22.62;51.89;99920.09;4512647;28;20026;-64
2023/09/20 06:42:37;;;;;;;1.02;0.60;;;;;;;22.61;51.59;99924.19;4494356;28;20554;-64
2023/09/20 06:44:49;;;;;;;1.23;0.52;;;;;;;22.58;51.62;99925.00;4511188;28;20031;-64
2023/09/20 06:47:00;;;;;;;1.60;0.57;;;;;;;22.63;51.84;99921.75;4511440;28;20889;-64
2023/09/20 06:49:11;;;;;;;1.33;0.60;;;;;;;22.60;52.29;99911.84;4512326;28;20069;-64
2023/09/20 06:51:21;;;;;;;0.75;0.50;;;;;;;22.63;51.99;99927.50;4512542;28;20030;-64
2023/09/20 06:53:32;;;;;;;1.92;0.60;;;;;;;22.62;51.85;99923.78;4511414;28;20038;-64
2023/09/20 06:55:43;;;;;;;1.52;0.60;;;;;;;22.62;51.37;99920.09;4511480;28;20900;-64
2023/09/20 06:57:54;;;;;;;1.48;0.52;;;;;;;22.62;51.23;99926.66;4511789;28;20040;-64
2023/09/20 07:00:19;;;;;;;0.80;0.60;;;;;;;22.63;51.01;99921.75;4511325;28;21011;-64
2023/09/20 07:02:29;;;;;;;0.60;0.50;;;;;;;22.62;51.27;99937.34;4497310;28;20069;-64
2023/09/20 07:04:40;;;;;;;0.90;0.50;;;;;;;22.60;51.28;99922.53;4492708;28;20134;-64
2023/09/20 07:07:05;;;;;;;0.70;0.60;;;;;;;22.60;51.06;99932.00;4512836;28;20104;-64
2023/09/20 07:09:15;;;;;;;0.93;0.68;;;;;;;22.62;51.40;99931.59;4512778;28;20038;-64
2023/09/20 07:11:28;;;;;;;0.80;0.50;;;;;;;22.62;51.19;99925.84;4503590;28;20026;-64
2023/09/20 07:13:38;;;;;;;0.95;0.50;;;;;;;22.61;51.06;99918.44;4497272;28;20141;-64
2023/09/20 07:15:51;;;;;;;0.57;0.57;;;;;;;22.57;51.57;99911.81;4515745;28;20025;-64
2023/09/20 07:18:11;;;;;;;1.73;0.50;;;;;;;22.57;51.32;99912.66;4515562;28;20108;-64
2023/09/20 07:20:21;;;;;;;0.55;0.45;;;;;;;22.63;51.47;99916.00;4514904;28;20090;-64
2023/09/20 07:22:32;;;;;;;0.80;0.50;;;;;;;22.60;51.18;99916.78;4515354;28;20564;-64
2023/09/20 07:24:45;;;;;;;0.75;0.65;;;;;;;22.57;51.62;99911.81;4515092;28;20033;-64
2023/09/20 07:26:58;;;;;;;0.98;0.65;;;;;;;22.62;51.38;99911.44;4516691;28;20037;-64
2023/09/20 07:29:12;;;;;;;0.52;0.52;;;;;;;22.59;52.32;99901.59;4497042;28;20054;-64
2023/09/20 07:31:24;;;;;;;0.80;0.50;;;;;;;22.62;52.03;99909.41;4514955;28;20579;-64
2023/09/20 07:33:38;;;;;;;1.15;0.60;;;;;;;22.60;52.16;99908.97;4514838;28;20552;-64
2023/09/20 07:36:01;;;;;;;0.82;0.60;;;;;;;22.62;51.90;99909.41;4514988;28;20044;-64
2023/09/20 07:38:27;;;;;;;0.90;0.70;;;;;;;22.60;51.55;99911.84;4515820;28;20112;-64
2023/09/20 07:40:40;;;;;;;0.60;0.50;;;;;;;22.59;51.86;99903.63;4514337;28;20139;-64
2023/09/20 07:42:51;;;;;;;1.50;0.60;;;;;;;22.57;52.00;99906.91;4499117;28;20027;-64
2023/09/20 07:45:12;;;;;;;1.02;0.60;;;;;;;22.62;51.85;99911.44;4514008;28;20038;-64
2023/09/20 07:47:22;;;;;;;1.17;0.60;;;;;;;22.61;51.92;99907.75;4506770;28;20049;-64
2023/09/20 07:49:32;;;;;;;0.93;0.60;;;;;;;22.61;51.75;99902.00;4514435;28;20383;-64
2023/09/20 07:51:45;;;;;;;0.73;0.60;;;;;;;22.57;51.95;99892.53;4506520;28;20034;-64
2023/09/20 07:53:55;;;;;;;1.20;0.73;;;;;;;22.63;51.99;99904.50;4515022;28;20029;-64
2023/09/20 07:56:11;;;;;;;0.50;0.47;;;;;;;22.62;51.83;99905.69;4513734;28;20049;-66
2023/09/20 07:58:21;;;;;;;0.50;0.50;;;;;;;22.62;52.00;99912.28;4515529;28;20045;-64
2023/09/20 08:00:32;;;;;;;0.93;0.70;;;;;;;22.60;52.10;99911.00;4514879;28;20927;-64
2023/09/20 08:02:47;;;;;;;0.70;0.55;;;;;;;22.62;52.04;99908.56;4515472;28;20025;-64
2023/09/20 08:04:57;;;;;;;1.05;0.50;;;;;;;22.61;51.78;99906.94;4512737;28;20080;-65
2023/09/20 08:07:08;;;;;;;0.43;0.40;;;;;;;22.58;52.00;99902.78;4514634;28;20147;-64
2023/09/20 08:09:18;;;;;;;1.10;0.50;;;;;;;22.61;51.58;99906.94;4514172;28;20057;-64
2023/09/20 08:11:29;;;;;;;0.50;0.50;;;;;;;22.62;51.52;99902.81;4511975;28;20065;-64
2023/09/20 08:13:40;;;;;;;1.13;0.60;;;;;;;22.60;51.43;99902.38;4513822;28;20127;-64
2023/09/20 08:15:51;;;;;;;0.75;0.68;;;;;;;22.60;51.78;99908.97;4513010;28;20075;-64
2023/09/20 08:20:34;;;;;;;0.50;0.50;;;;;;;22.58;51.84;99899.91;4515153;28;20065;-64
2023/09/20 09:00:31;;;;;;;1.58;0.40;;;;;;;22.58;52.16;99891.28;4514547;28;20593;-63
2023/09/20 09:02:41;;;;;;;0.47;0.40;;;;;;;22.60;51.94;99879.38;4514319;28;20040;-64
2023/09/20 09:04:53;;;;;;;0.57;0.40;;;;;;;22.62;52.00;99903.66;4513547;28;21011;-64
2023/09/20 09:07:05;;;;;;;0.43;0.40;;;;;;;22.58;52.17;99878.97;4498497;28;20038;-64
2023/09/20 09:09:15;;;;;;;0.93;0.50;;;;;;;22.63;51.98;99895.88;4512949;28;21332;-64
2023/09/20 09:11:26;;;;;;;0.75;0.30;;;;;;;22.58;52.03;99884.72;4513534;28;20034;-64
2023/09/20 09:13:36;;;;;;;0.45;0.30;;;;;;;22.62;51.64;99891.31;4500251;28;20058;-65
2023/09/20 09:15:48;;;;;;;0.40;0.38;;;;;;;22.62;52.27;99889.28;4498140;28;20073;-64
2023/09/20 09:17:58;;;;;;;0.40;0.40;;;;;;;22.58;51.87;99887.59;4512873;28;20033;-64
2023/09/20 09:20:10;;;;;;;0.50;0.50;;;;;;;22.62;52.19;99892.16;4512747;28;20022;-64
2023/09/20 09:22:23;;;;;;;0.73;0.60;;;;;;;22.61;52.13;99899.13;4513920;28;20033;-64
2023/09/20 09:24:45;;;;;;;0.40;0.30;;;;;;;22.63;52.39;99893.00;4511686;28;20550;-64
2023/09/20 09:27:06;;;;;;;0.90;0.50;;;;;;;22.61;52.14;99884.72;4513916;28;20038;-64
2023/09/20 09:29:17;;;;;;;1.13;0.50;;;;;;;22.62;52.22;99889.28;4496965;28;20109;-65
2023/09/20 09:31:29;;;;;;;1.25;0.60;;;;;;;22.62;53.05;99879.81;4506109;28;20085;-64
2023/09/20 09:33:40;;;;;;;1.67;0.50;;;;;;;22.61;53.35;99883.94;4513675;28;20042;-64
2023/09/20 09:35:50;;;;;;;0.40;0.40;;;;;;;22.62;52.84;99885.56;4513425;28;20046;-64
2023/09/20 09:38:01;;;;;;;0.47;0.40;;;;;;;22.55;52.54;99874.03;4513079;28;20117;-67
2023/09/20 09:40:14;;;;;;;1.45;0.30;;;;;;;22.61;53.29;99883.94;4496171;28;20118;-64
2023/09/20 09:42:25;;;;;;;0.60;0.40;;;;;;;22.63;53.01;99884.38;4502961;28;20045;-64
2023/09/20 09:44:52;;;;;;;0.32;0.30;;;;;;;22.60;52.40;99885.13;4512846;28;20386;-64
2023/09/20 09:47:04;;;;;;;0.30;0.30;;;;;;;22.59;52.08;99884.31;4513323;28;20041;-64
2023/09/20 09:49:18;;;;;;;0.43;0.43;;;;;;;22.62;52.64;99892.16;4512244;28;20040;-64
2023/09/20 09:51:32;;;;;;;0.52;0.50;;;;;;;22.57;52.47;99886.75;4512802;28;20037;-64
2023/09/20 09:53:45;;;;;;;0.32;0.30;;;;;;;22.60;52.17;99900.34;4514060;28;20885;-64
2023/09/20 09:55:56;;;;;;;0.85;0.30;;;;;;;22.58;51.33;99884.72;4512360;28;20045;-64
2023/09/20 09:58:09;;;;;;;1.42;0.35;;;;;;;22.62;51.03;99908.56;4513562;28;20580;-64
2023/09/20 10:00:20;;;;;;;0.68;0.40;;;;;;;22.60;50.81;99891.72;4513653;28;21172;-64
2023/09/20 10:02:33;;;;;;;0.47;0.38;;;;;;;22.59;50.85;99887.19;4513128;28;20143;-64
2023/09/20 10:04:54;;;;;;;0.30;0.20;;;;;;;22.62;51.10;99903.66;4512766;28;20885;-64
2023/09/20 10:07:14;;;;;;;0.30;0.30;;;;;;;22.59;51.11;99895.00;4513725;28;20655;-64
2023/09/20 10:09:31;;;;;;;0.50;0.30;;;;;;;22.59;51.26;99886.38;4513873;28;20216;-64
2023/09/20 10:11:42;;;;;;;0.40;0.40;;;;;;;22.58;50.89;99897.03;4513217;28;20038;-64
2023/09/20 10:13:54;;;;;;;0.60;0.40;;;;;;;22.59;51.29;99900.75;4511510;28;20120;-64
2023/09/20 10:16:06;;;;;;;0.40;0.30;;;;;;;22.60;51.17;99911.84;4513677;28;20560;-64
2023/09/20 10:18:17;;;;;;;0.47;0.30;;;;;;;22.59;51.96;99915.13;4500491;28;20042;-64
2023/09/20 10:21:10;;;;;;;0.50;0.50;;;;;;;22.63;52.00;99910.25;4513719;28;20030;-64
2023/09/20 10:23:22;;;;;;;1.05;0.40;;;;;;;22.60;51.78;99905.25;4512521;28;20475;-64
2023/09/20 10:25:34;;;;;;;0.40;0.32;;;;;;;22.61;51.93;99915.56;4500905;28;20108;-64
2023/09/20 10:27:44;;;;;;;0.73;0.40;;;;;;;22.63;51.72;99922.56;4512936;28;20124;-64
2023/09/20 10:30:10;;;;;;;0.85;0.45;;;;;;;22.64;52.07;99929.16;4513457;28;20107;-64
2023/09/20 10:32:21;;;;;;;0.60;0.38;;;;;;;22.59;52.23;99906.50;4512341;28;20060;-64
2023/09/20 10:34:37;;;;;;;0.40;0.40;;;;;;;22.63;51.80;99913.13;4511531;28;20037;-64
2023/09/20 10:36:52;;;;;;;0.50;0.30;;;;;;;22.64;51.56;99912.72;4512582;28;20018;-65
2023/09/20 10:39:16;;;;;;;0.22;0.22;;;;;;;22.64;52.41;99906.97;4512964;28;20060;-64
2023/09/20 10:41:40;;;;;;;0.57;0.32;;;;;;;22.64;52.24;99906.13;4511801;28;20882;-65
2023/09/20 10:43:54;;;;;;;1.40;0.40;;;;;;;22.63;53.30;99910.25;4513510;28;20029;-64
2023/09/20 10:46:11;;;;;;;0.80;0.30;;;;;;;22.64;52.66;99906.97;4511664;28;20045;-64
2023/09/20 10:48:30;;;;;;;1.25;0.40;;;;;;;22.64;52.62;99906.97;4513310;28;20157;-64
2023/09/20 10:50:52;;;;;;;0.35;0.35;;;;;;;22.65;53.18;99907.78;4515470;28;20084;-64
2023/09/20 10:53:03;;;;;;;0.65;0.40;;;;;;;22.63;52.67;99904.50;4491175;28;20125;-64
2023/09/20 10:55:22;;;;;;;0.55;0.30;;;;;;;22.65;53.02;99907.78;4515462;28;20562;-64
2023/09/20 10:57:33;;;;;;;0.80;0.45;;;;;;;22.63;52.42;99908.19;4515843;28;20033;-64
2023/09/20 10:59:45;;;;;;;0.35;0.30;;;;;;;22.65;52.73;99902.03;4517253;28;20038;-64
2023/09/20 11:02:02;;;;;;;0.85;0.50;;;;;;;22.65;52.62;99896.28;4515754;28;20022;-64